createdAt,value
2017-03-28T00:00:15.602Z,1014.13
2017-03-28T00:01:16.843Z,1014.09
2017-03-28T00:02:18.081Z,1014.12
2017-03-28T00:03:19.365Z,1014.15
2017-03-28T00:04:20.609Z,1014.17
2017-03-28T00:05:21.854Z,1014.19
2017-03-28T00:06:23.089Z,1014.17
2017-03-28T00:07:24.346Z,1014.2
2017-03-28T00:08:25.594Z,1014.22
2017-03-28T00:09:26.840Z,1014.19
2017-03-28T00:10:28.080Z,1014.19
2017-03-28T00:11:29.330Z,1014.22
2017-03-28T00:12:30.577Z,1014.21
2017-03-28T00:13:31.821Z,1014.21
2017-03-28T00:14:33.085Z,1014.2
2017-03-28T00:15:34.316Z,1014.21
2017-03-28T00:16:35.558Z,1014.2
2017-03-28T00:17:36.806Z,1014.2
2017-03-28T00:18:38.049Z,1014.19
2017-03-28T00:19:39.334Z,1014.2
2017-03-28T00:20:40.553Z,1014.19
2017-03-28T00:21:42.006Z,1014.17
2017-03-28T00:22:43.262Z,1014.2
2017-03-28T00:23:44.520Z,1014.19
2017-03-28T00:24:45.759Z,1014.2
2017-03-28T00:25:47.000Z,1014.17
2017-03-28T00:26:48.376Z,1014.15
2017-03-28T00:27:49.578Z,1014.15
2017-03-28T00:28:50.894Z,1014.15
2017-03-28T00:29:52.129Z,1014.14
2017-03-28T00:30:53.363Z,1014.13
2017-03-28T00:31:54.612Z,1014.13
2017-03-28T00:32:56.070Z,1014.14
2017-03-28T00:33:57.354Z,1014.09
2017-03-28T00:34:58.601Z,1014.11
2017-03-28T00:35:59.838Z,1014.07
2017-03-28T00:37:01.083Z,1014.12
2017-03-28T00:38:02.326Z,1014.08
2017-03-28T00:39:03.570Z,1014.1
2017-03-28T00:40:04.849Z,1014.15
2017-03-28T00:41:06.066Z,1014.13
2017-03-28T00:42:07.313Z,1014.09
2017-03-28T00:43:08.553Z,1014.09
2017-03-28T00:44:09.791Z,1014.11
2017-03-28T00:45:11.022Z,1014.08
2017-03-28T00:46:12.259Z,1014.09
2017-03-28T00:47:13.534Z,1014.07
2017-03-28T00:48:14.778Z,1014.09
2017-03-28T00:49:16.008Z,1014.06
2017-03-28T00:50:17.264Z,1014.04
2017-03-28T00:51:18.475Z,1014.07
2017-03-28T00:52:19.799Z,1014.07
2017-03-28T00:53:21.035Z,1014.03
2017-03-28T00:54:22.283Z,1014.02
2017-03-28T00:55:23.514Z,1014.01
2017-03-28T00:56:24.741Z,1014.02
2017-03-28T00:57:25.990Z,1014.01
2017-03-28T00:58:27.340Z,1013.98
2017-03-28T00:59:28.471Z,1014.01
2017-03-28T01:00:29.781Z,1013.97
2017-03-28T01:01:31.025Z,1013.98
2017-03-28T01:02:32.267Z,1013.96
2017-03-28T01:03:33.494Z,1014
2017-03-28T01:04:34.739Z,1013.92
2017-03-28T01:05:36.061Z,1013.93
2017-03-28T01:06:37.314Z,1013.92
2017-03-28T01:07:38.536Z,1013.87
2017-03-28T01:08:39.775Z,1013.86
2017-03-28T01:09:41.027Z,1013.87
2017-03-28T01:10:42.245Z,1013.87
2017-03-28T01:11:43.491Z,1013.86
2017-03-28T01:12:44.733Z,1013.85
2017-03-28T01:13:45.983Z,1013.85
2017-03-28T01:14:47.299Z,1013.81
2017-03-28T01:15:48.505Z,1013.79
2017-03-28T01:16:49.737Z,1013.77
2017-03-28T01:17:51.011Z,1013.74
2017-03-28T01:18:52.229Z,1013.72
2017-03-28T01:19:53.466Z,1013.74
2017-03-28T01:20:54.704Z,1013.74
2017-03-28T01:21:55.943Z,1013.73
2017-03-28T01:22:57.175Z,1013.72
2017-03-28T01:23:58.429Z,1013.73
2017-03-28T01:24:59.863Z,1013.66
2017-03-28T01:26:01.127Z,1013.67
2017-03-28T01:27:02.364Z,1013.63
2017-03-28T01:28:03.646Z,1013.64
2017-03-28T01:29:04.915Z,1013.66
2017-03-28T01:30:06.131Z,1013.64
2017-03-28T01:31:07.384Z,1013.61
2017-03-28T01:32:08.645Z,1013.59
2017-03-28T01:33:09.884Z,1013.62
2017-03-28T01:34:11.121Z,1013.56
2017-03-28T01:35:12.340Z,1013.59
2017-03-28T01:36:13.580Z,1013.5
2017-03-28T01:37:14.818Z,1013.49
2017-03-28T01:38:16.060Z,1013.48
2017-03-28T01:39:17.477Z,1013.49
2017-03-28T01:40:18.715Z,1013.49
2017-03-28T01:41:19.975Z,1013.46
2017-03-28T01:42:21.185Z,1013.48
2017-03-28T01:43:22.422Z,1013.49
2017-03-28T01:44:23.801Z,1013.47
2017-03-28T01:45:25.053Z,1013.48
2017-03-28T01:46:26.309Z,1013.46
2017-03-28T01:47:27.554Z,1013.47
2017-03-28T01:48:28.795Z,1013.47
2017-03-28T01:49:30.116Z,1013.42
2017-03-28T01:50:31.491Z,1013.44
2017-03-28T01:51:32.726Z,1013.44
2017-03-28T01:52:33.964Z,1013.43
2017-03-28T01:53:35.204Z,1013.41
2017-03-28T01:54:36.442Z,1013.37
2017-03-28T01:55:37.697Z,1013.33
2017-03-28T01:56:38.922Z,1013.35
2017-03-28T01:57:40.199Z,1013.35
2017-03-28T01:58:41.428Z,1013.33
2017-03-28T01:59:42.675Z,1013.3
2017-03-28T02:00:43.951Z,1013.31
2017-03-28T02:01:45.193Z,1013.31
2017-03-28T02:02:46.419Z,1013.27
2017-03-28T02:03:47.660Z,1013.32
2017-03-28T02:04:48.909Z,1013.32
2017-03-28T02:05:50.144Z,1013.27
2017-03-28T02:06:51.398Z,1013.24
2017-03-28T02:07:52.651Z,1013.24
2017-03-28T02:08:53.917Z,1013.23
2017-03-28T02:09:55.155Z,1013.2
2017-03-28T02:10:56.377Z,1013.2
2017-03-28T02:11:57.621Z,1013.18
2017-03-28T02:12:58.863Z,1013.17
2017-03-28T02:14:00.107Z,1013.18
2017-03-28T02:15:01.358Z,1013.21
2017-03-28T02:16:02.648Z,1013.19
2017-03-28T02:17:03.885Z,1013.2
2017-03-28T02:18:05.181Z,1013.14
2017-03-28T02:19:06.411Z,1013.12
2017-03-28T02:20:07.662Z,1013.13
2017-03-28T02:21:08.887Z,1013.12
2017-03-28T02:22:10.126Z,1013.09
2017-03-28T02:23:11.550Z,1013.1
2017-03-28T02:24:12.802Z,1013.09
2017-03-28T02:25:14.004Z,1013.12
2017-03-28T02:26:15.244Z,1013.11
2017-03-28T02:27:16.476Z,1013.09
2017-03-28T02:28:17.813Z,1013.1
2017-03-28T02:29:19.094Z,1013.07
2017-03-28T02:30:20.346Z,1013.08
2017-03-28T02:31:21.581Z,1013.09
2017-03-28T02:32:22.819Z,1013.1
2017-03-28T02:33:24.162Z,1013.07
2017-03-28T02:34:25.539Z,1013.05
2017-03-28T02:35:26.796Z,1013.04
2017-03-28T02:36:28.033Z,1012.99
2017-03-28T02:37:29.275Z,1013
2017-03-28T02:38:30.537Z,1012.97
2017-03-28T02:39:31.745Z,1012.94
2017-03-28T02:40:33.002Z,1012.93
2017-03-28T02:41:34.295Z,1012.95
2017-03-28T02:42:35.572Z,1012.94
2017-03-28T02:43:36.788Z,1012.98
2017-03-28T02:44:38.021Z,1012.98
2017-03-28T02:45:39.303Z,1012.97
2017-03-28T02:46:40.663Z,1012.99
2017-03-28T02:47:41.874Z,1012.93
2017-03-28T02:48:43.112Z,1012.91
2017-03-28T02:49:44.375Z,1012.91
2017-03-28T02:50:45.596Z,1012.94
2017-03-28T02:51:46.827Z,1012.89
2017-03-28T02:52:48.124Z,1012.9
2017-03-28T02:53:49.363Z,1012.92
2017-03-28T02:54:50.603Z,1012.88
2017-03-28T02:55:51.890Z,1012.86
2017-03-28T02:56:53.145Z,1012.86
2017-03-28T02:57:54.383Z,1012.85
2017-03-28T02:58:55.669Z,1012.87
2017-03-28T02:59:56.896Z,1012.88
2017-03-28T03:00:58.235Z,1012.86
2017-03-28T03:01:59.521Z,1012.88
2017-03-28T03:03:00.739Z,1012.87
2017-03-28T03:04:01.995Z,1012.85
2017-03-28T03:05:03.219Z,1012.83
2017-03-28T03:06:04.460Z,1012.84
2017-03-28T03:07:05.700Z,1012.86
2017-03-28T03:08:06.938Z,1012.88
2017-03-28T03:09:08.173Z,1012.86
2017-03-28T03:10:09.442Z,1012.88
2017-03-28T03:11:10.701Z,1012.86
2017-03-28T03:12:11.974Z,1012.82
2017-03-28T03:13:13.222Z,1012.84
2017-03-28T03:14:14.446Z,1012.81
2017-03-28T03:15:15.698Z,1012.78
2017-03-28T03:16:16.949Z,1012.79
2017-03-28T03:17:18.190Z,1012.8
2017-03-28T03:18:19.424Z,1012.83
2017-03-28T03:19:20.661Z,1012.83
2017-03-28T03:20:21.910Z,1012.8
2017-03-28T03:21:23.227Z,1012.81
2017-03-28T03:22:24.474Z,1012.82
2017-03-28T03:23:25.746Z,1012.79
2017-03-28T03:24:26.968Z,1012.8
2017-03-28T03:25:28.316Z,1012.8
2017-03-28T03:26:29.656Z,1012.79
2017-03-28T03:27:30.937Z,1012.79
2017-03-28T03:28:32.207Z,1012.8
2017-03-28T03:29:33.421Z,1012.8
2017-03-28T03:30:34.651Z,1012.75
2017-03-28T03:31:35.901Z,1012.76
2017-03-28T03:32:37.304Z,1012.77
2017-03-28T03:33:38.542Z,1012.78
2017-03-28T03:34:39.985Z,1012.79
2017-03-28T03:35:41.252Z,1012.8
2017-03-28T03:36:42.481Z,1012.8
2017-03-28T03:37:43.767Z,1012.81
2017-03-28T03:38:45.080Z,1012.83
2017-03-28T03:39:46.315Z,1012.78
2017-03-28T03:40:47.602Z,1012.78
2017-03-28T03:41:48.842Z,1012.79
2017-03-28T03:42:50.080Z,1012.83
2017-03-28T03:43:51.520Z,1012.77
2017-03-28T03:44:52.785Z,1012.8
2017-03-28T03:45:54.010Z,1012.79
2017-03-28T03:46:55.260Z,1012.82
2017-03-28T03:47:56.508Z,1012.81
2017-03-28T03:48:57.779Z,1012.81
2017-03-28T03:49:59.009Z,1012.8
2017-03-28T03:51:00.278Z,1012.8
2017-03-28T03:52:01.516Z,1012.81
2017-03-28T03:53:02.739Z,1012.8
2017-03-28T03:54:03.998Z,1012.8
2017-03-28T03:55:05.214Z,1012.79
2017-03-28T03:56:06.452Z,1012.81
2017-03-28T03:57:07.773Z,1012.82
2017-03-28T03:58:09.126Z,1012.79
2017-03-28T03:59:10.359Z,1012.74
2017-03-28T04:00:11.599Z,1012.78
2017-03-28T04:01:12.864Z,1012.77
2017-03-28T04:02:14.116Z,1012.77
2017-03-28T04:03:15.388Z,1012.75
2017-03-28T04:04:16.637Z,1012.78
2017-03-28T04:05:17.900Z,1012.76
2017-03-28T04:06:19.137Z,1012.72
2017-03-28T04:07:20.381Z,1012.73
2017-03-28T04:08:21.681Z,1012.68
2017-03-28T04:09:22.935Z,1012.71
2017-03-28T04:10:24.199Z,1012.69
2017-03-28T04:11:25.438Z,1012.74
2017-03-28T04:12:26.675Z,1012.72
2017-03-28T04:13:27.938Z,1012.72
2017-03-28T04:14:29.158Z,1012.68
2017-03-28T04:15:30.412Z,1012.7
2017-03-28T04:16:31.779Z,1012.68
2017-03-28T04:17:33.034Z,1012.7
2017-03-28T04:18:34.272Z,1012.72
2017-03-28T04:19:35.512Z,1012.73
2017-03-28T04:20:36.749Z,1012.7
2017-03-28T04:21:38.001Z,1012.7
2017-03-28T04:22:39.259Z,1012.73
2017-03-28T04:23:40.488Z,1012.72
2017-03-28T04:24:41.727Z,1012.72
2017-03-28T04:25:42.971Z,1012.72
2017-03-28T04:26:44.201Z,1012.72
2017-03-28T04:27:45.495Z,1012.72
2017-03-28T04:28:46.719Z,1012.73
2017-03-28T04:29:48.094Z,1012.72
2017-03-28T04:30:49.339Z,1012.7
2017-03-28T04:31:50.609Z,1012.71
2017-03-28T04:32:51.823Z,1012.72
2017-03-28T04:33:53.064Z,1012.72
2017-03-28T04:34:54.395Z,1012.69
2017-03-28T04:35:55.638Z,1012.74
2017-03-28T04:36:56.909Z,1012.74
2017-03-28T04:37:58.150Z,1012.72
2017-03-28T04:38:59.379Z,1012.74
2017-03-28T04:40:00.603Z,1012.72
2017-03-28T04:41:01.852Z,1012.7
2017-03-28T04:42:03.113Z,1012.69
2017-03-28T04:43:04.376Z,1012.72
2017-03-28T04:44:05.711Z,1012.72
2017-03-28T04:45:06.935Z,1012.73
2017-03-28T04:46:08.165Z,1012.71
2017-03-28T04:47:09.427Z,1012.7
2017-03-28T04:48:10.672Z,1012.71
2017-03-28T04:49:11.911Z,1012.72
2017-03-28T04:50:13.176Z,1012.72
2017-03-28T04:51:14.460Z,1012.74
2017-03-28T04:52:15.665Z,1012.69
2017-03-28T04:53:16.904Z,1012.73
2017-03-28T04:54:18.154Z,1012.72
2017-03-28T04:55:19.510Z,1012.73
2017-03-28T04:56:20.762Z,1012.72
2017-03-28T04:57:22.001Z,1012.71
2017-03-28T04:58:23.249Z,1012.73
2017-03-28T04:59:24.564Z,1012.76
2017-03-28T05:00:25.846Z,1012.74
2017-03-28T05:01:27.083Z,1012.76
2017-03-28T05:02:28.309Z,1012.78
2017-03-28T05:03:29.576Z,1012.78
2017-03-28T05:04:30.803Z,1012.77
2017-03-28T05:05:32.078Z,1012.78
2017-03-28T05:06:33.339Z,1012.8
2017-03-28T05:07:34.561Z,1012.8
2017-03-28T05:08:35.823Z,1012.78
2017-03-28T05:09:37.098Z,1012.8
2017-03-28T05:10:38.317Z,1012.79
2017-03-28T05:11:39.585Z,1012.81
2017-03-28T05:12:40.804Z,1012.8
2017-03-28T05:13:42.126Z,1012.82
2017-03-28T05:14:43.437Z,1012.79
2017-03-28T05:15:44.673Z,1012.82
2017-03-28T05:16:45.919Z,1012.78
2017-03-28T05:17:47.156Z,1012.77
2017-03-28T05:18:48.401Z,1012.78
2017-03-28T05:19:49.669Z,1012.8
2017-03-28T05:20:50.999Z,1012.8
2017-03-28T05:21:52.149Z,1012.82
2017-03-28T05:22:53.510Z,1012.85
2017-03-28T05:23:54.742Z,1012.81
2017-03-28T05:24:55.987Z,1012.83
2017-03-28T05:25:57.240Z,1012.83
2017-03-28T05:26:58.526Z,1012.84
2017-03-28T05:27:59.826Z,1012.82
2017-03-28T05:29:01.063Z,1012.81
2017-03-28T05:30:02.305Z,1012.83
2017-03-28T05:31:03.562Z,1012.83
2017-03-28T05:32:04.811Z,1012.84
2017-03-28T05:33:06.432Z,1012.83
2017-03-28T05:34:07.672Z,1012.85
2017-03-28T05:35:08.926Z,1012.88
2017-03-28T05:36:10.188Z,1012.88
2017-03-28T05:37:11.449Z,1012.85
2017-03-28T05:38:12.677Z,1012.9
2017-03-28T05:39:14.005Z,1012.84
2017-03-28T05:40:15.244Z,1012.85
2017-03-28T05:41:16.484Z,1012.88
2017-03-28T05:42:17.987Z,1012.9
2017-03-28T05:43:19.238Z,1012.88
2017-03-28T05:44:20.486Z,1012.87
2017-03-28T05:45:21.778Z,1012.85
2017-03-28T05:46:22.984Z,1012.87
2017-03-28T05:47:24.238Z,1012.87
2017-03-28T05:48:25.487Z,1012.84
2017-03-28T05:49:26.728Z,1012.86
2017-03-28T05:50:27.971Z,1012.85
2017-03-28T05:51:29.260Z,1012.84
2017-03-28T05:52:30.527Z,1012.86
2017-03-28T05:53:31.782Z,1012.87
2017-03-28T05:54:32.995Z,1012.91
2017-03-28T05:55:34.242Z,1012.9
2017-03-28T05:56:35.504Z,1012.9
2017-03-28T05:57:36.722Z,1012.94
2017-03-28T05:58:37.965Z,1012.99
2017-03-28T05:59:39.203Z,1013
2017-03-28T06:00:40.468Z,1012.99
2017-03-28T06:01:41.834Z,1012.97
2017-03-28T06:02:42.979Z,1013
2017-03-28T06:03:44.357Z,1012.98
2017-03-28T06:04:45.632Z,1013.01
2017-03-28T06:05:46.863Z,1013.01
2017-03-28T06:06:48.094Z,1012.96
2017-03-28T06:07:49.334Z,1012.93
2017-03-28T06:08:50.640Z,1012.95
2017-03-28T06:09:51.881Z,1012.98
2017-03-28T06:10:53.124Z,1012.94
2017-03-28T06:11:54.368Z,1012.96
2017-03-28T06:12:55.611Z,1012.98
2017-03-28T06:13:56.869Z,1013.02
2017-03-28T06:14:58.217Z,1013.02
2017-03-28T06:15:59.469Z,1013.03
2017-03-28T06:17:00.725Z,1013.02
2017-03-28T06:18:01.955Z,1013.01
2017-03-28T06:19:03.204Z,1013
2017-03-28T06:20:04.495Z,1013.04
2017-03-28T06:21:05.919Z,1013.05
2017-03-28T06:22:07.169Z,1013.02
2017-03-28T06:23:08.397Z,1013.07
2017-03-28T06:24:09.868Z,1013.1
2017-03-28T06:25:11.112Z,1013.07
2017-03-28T06:26:12.422Z,1013.07
2017-03-28T06:27:13.695Z,1013.1
2017-03-28T06:28:14.977Z,1013.11
2017-03-28T06:29:16.224Z,1013.09
2017-03-28T06:30:17.470Z,1013.09
2017-03-28T06:31:18.712Z,1013.09
2017-03-28T06:32:20.033Z,1013.09
2017-03-28T06:33:21.300Z,1013.07
2017-03-28T06:34:22.558Z,1013.11
2017-03-28T06:35:23.791Z,1013.11
2017-03-28T06:36:25.029Z,1013.13
2017-03-28T06:37:26.281Z,1013.12
2017-03-28T06:38:27.570Z,1013.13
2017-03-28T06:39:28.853Z,1013.13
2017-03-28T06:40:30.234Z,1013.12
2017-03-28T06:41:31.498Z,1013.12
2017-03-28T06:42:32.743Z,1013.16
2017-03-28T06:43:33.985Z,1013.14
2017-03-28T06:44:35.249Z,1013.13
2017-03-28T06:45:36.479Z,1013.13
2017-03-28T06:46:37.734Z,1013.07
2017-03-28T06:47:38.982Z,1013.12
2017-03-28T06:48:40.263Z,1013.12
2017-03-28T06:49:41.509Z,1013.15
2017-03-28T06:50:42.909Z,1013.16
2017-03-28T06:51:44.187Z,1013.17
2017-03-28T06:52:45.536Z,1013.19
2017-03-28T06:53:46.783Z,1013.15
2017-03-28T06:54:48.032Z,1013.15
2017-03-28T06:55:49.273Z,1013.13
2017-03-28T06:56:50.545Z,1013.2
2017-03-28T06:57:51.811Z,1013.22
2017-03-28T06:58:53.064Z,1013.24
2017-03-28T06:59:54.314Z,1013.29
2017-03-28T07:00:55.549Z,1013.28
2017-03-28T07:01:56.799Z,1013.28
2017-03-28T07:02:58.190Z,1013.3
2017-03-28T07:03:59.471Z,1013.25
2017-03-28T07:05:00.711Z,1013.24
2017-03-28T07:06:01.954Z,1013.24
2017-03-28T07:07:03.200Z,1013.26
2017-03-28T07:08:04.461Z,1013.29
2017-03-28T07:09:05.793Z,1013.27
2017-03-28T07:10:07.018Z,1013.3
2017-03-28T07:11:08.318Z,1013.3
2017-03-28T07:12:09.587Z,1013.32
2017-03-28T07:13:10.829Z,1013.29
2017-03-28T07:14:12.081Z,1013.3
2017-03-28T07:15:13.334Z,1013.32
2017-03-28T07:16:14.595Z,1013.34
2017-03-28T07:17:15.931Z,1013.35
2017-03-28T07:18:17.181Z,1013.36
2017-03-28T07:19:18.412Z,1013.35
2017-03-28T07:20:19.712Z,1013.36
2017-03-28T07:21:20.959Z,1013.38
2017-03-28T07:22:22.235Z,1013.4
2017-03-28T07:23:23.507Z,1013.42
2017-03-28T07:24:24.756Z,1013.42
2017-03-28T07:25:26.009Z,1013.47
2017-03-28T07:26:27.267Z,1013.46
2017-03-28T07:27:28.532Z,1013.47
2017-03-28T07:28:29.855Z,1013.44
2017-03-28T07:29:31.189Z,1013.49
2017-03-28T07:30:32.431Z,1013.46
2017-03-28T07:31:33.707Z,1013.43
2017-03-28T07:32:34.939Z,1013.42
2017-03-28T07:33:36.226Z,1013.44
2017-03-28T07:34:37.464Z,1013.43
2017-03-28T07:35:38.712Z,1013.45
2017-03-28T07:36:39.972Z,1013.48
2017-03-28T07:37:41.235Z,1013.48
2017-03-28T07:38:42.494Z,1013.46
2017-03-28T07:39:43.812Z,1013.49
2017-03-28T07:40:45.052Z,1013.47
2017-03-28T07:41:46.310Z,1013.48
2017-03-28T07:42:47.590Z,1013.45
2017-03-28T07:43:48.859Z,1013.46
2017-03-28T07:44:50.144Z,1013.48
2017-03-28T07:45:51.379Z,1013.5
2017-03-28T07:46:52.618Z,1013.54
2017-03-28T07:47:53.956Z,1013.53
2017-03-28T07:48:55.261Z,1013.52
2017-03-28T07:49:56.485Z,1013.55
2017-03-28T07:50:57.730Z,1013.54
2017-03-28T07:51:59.022Z,1013.59
2017-03-28T07:53:00.308Z,1013.58
2017-03-28T07:54:01.588Z,1013.54
2017-03-28T07:55:02.864Z,1013.64
2017-03-28T07:56:04.089Z,1013.6
2017-03-28T07:57:05.341Z,1013.63
2017-03-28T07:58:06.639Z,1013.64
2017-03-28T07:59:07.973Z,1013.65
2017-03-28T08:00:09.230Z,1013.67
2017-03-28T08:01:10.513Z,1013.71
2017-03-28T08:02:11.744Z,1013.69
2017-03-28T08:03:12.998Z,1013.72
2017-03-28T08:04:14.387Z,1013.71
2017-03-28T08:05:15.727Z,1013.72
2017-03-28T08:06:16.996Z,1013.79
2017-03-28T08:07:18.233Z,1013.78
2017-03-28T08:08:19.502Z,1013.78
2017-03-28T08:09:20.751Z,1013.83
2017-03-28T08:10:22.031Z,1013.79
2017-03-28T08:11:23.411Z,1013.84
2017-03-28T08:12:24.646Z,1013.82
2017-03-28T08:13:25.901Z,1013.86
2017-03-28T08:14:27.158Z,1013.84
2017-03-28T08:15:28.437Z,1013.84
2017-03-28T08:16:29.694Z,1013.89
2017-03-28T08:17:30.989Z,1013.84
2017-03-28T08:18:32.326Z,1013.87
2017-03-28T08:19:33.577Z,1013.89
2017-03-28T08:20:34.823Z,1013.86
2017-03-28T08:21:36.141Z,1013.84
2017-03-28T08:22:37.407Z,1013.86
2017-03-28T08:23:38.669Z,1013.89
2017-03-28T08:24:39.925Z,1013.88
2017-03-28T08:25:41.158Z,1013.85
2017-03-28T08:26:42.404Z,1013.8
2017-03-28T08:27:43.680Z,1013.81
2017-03-28T08:28:44.938Z,1013.82
2017-03-28T08:29:46.323Z,1013.84
2017-03-28T08:30:47.575Z,1013.82
2017-03-28T08:31:48.823Z,1013.83
2017-03-28T08:32:50.092Z,1013.84
2017-03-28T08:33:51.363Z,1013.82
2017-03-28T08:34:52.622Z,1013.82
2017-03-28T08:35:53.889Z,1013.79
2017-03-28T08:36:55.150Z,1013.77
2017-03-28T08:37:56.424Z,1013.82
2017-03-28T08:38:57.661Z,1013.78
2017-03-28T08:39:58.913Z,1013.82
2017-03-28T08:41:00.278Z,1013.82
2017-03-28T08:42:01.600Z,1013.84
2017-03-28T08:43:02.832Z,1013.79
2017-03-28T08:44:04.081Z,1013.81
2017-03-28T08:45:05.340Z,1013.87
2017-03-28T08:46:06.602Z,1013.84
2017-03-28T08:47:07.839Z,1013.83
2017-03-28T08:48:09.124Z,1013.8
2017-03-28T08:49:10.377Z,1013.84
2017-03-28T08:50:11.695Z,1013.81
2017-03-28T08:51:12.942Z,1013.79
2017-03-28T08:52:14.209Z,1013.83
2017-03-28T08:53:15.535Z,1013.84
2017-03-28T08:54:16.812Z,1013.87
2017-03-28T08:55:18.092Z,1013.91
2017-03-28T08:56:19.348Z,1013.93
2017-03-28T08:57:20.597Z,1013.96
2017-03-28T08:58:21.919Z,1014.02
2017-03-28T08:59:23.180Z,1014.01
2017-03-28T09:00:24.462Z,1014.01
2017-03-28T09:01:25.739Z,1014
2017-03-28T09:02:26.984Z,1013.98
2017-03-28T09:03:28.270Z,1013.94
2017-03-28T09:04:29.493Z,1013.97
2017-03-28T09:05:30.753Z,1013.96
2017-03-28T09:06:32.162Z,1013.99
2017-03-28T09:07:33.450Z,1013.96
2017-03-28T09:08:34.702Z,1013.98
2017-03-28T09:09:35.969Z,1014.05
2017-03-28T09:10:37.294Z,1014.05
2017-03-28T09:11:38.509Z,1014.08
2017-03-28T09:12:39.787Z,1014.1
2017-03-28T09:13:41.042Z,1014.1
2017-03-28T09:14:42.316Z,1014.07
2017-03-28T09:15:43.553Z,1014.05
2017-03-28T09:16:44.844Z,1014.08
2017-03-28T09:17:46.111Z,1014.06
2017-03-28T09:18:47.493Z,1014.06
2017-03-28T09:19:48.758Z,1014.1
2017-03-28T09:20:50.012Z,1014.1
2017-03-28T09:21:51.291Z,1014.09
2017-03-28T09:22:52.589Z,1014.07
2017-03-28T09:23:53.918Z,1014.11
2017-03-28T09:24:55.192Z,1014.13
2017-03-28T09:25:56.444Z,1014.14
2017-03-28T09:26:57.695Z,1014.14
2017-03-28T09:27:59.000Z,1014.16
2017-03-28T09:29:00.315Z,1014.16
2017-03-28T09:30:01.602Z,1014.18
2017-03-28T09:31:02.871Z,1014.21
2017-03-28T09:32:04.126Z,1014.22
2017-03-28T09:33:05.387Z,1014.29
2017-03-28T09:34:06.655Z,1014.25
2017-03-28T09:35:08.017Z,1014.18
2017-03-28T09:36:09.280Z,1014.11
2017-03-28T09:37:10.538Z,1013.97
2017-03-28T09:38:11.822Z,1013.99
2017-03-28T09:39:13.043Z,1013.95
2017-03-28T09:40:14.422Z,1013.97
2017-03-28T09:41:15.693Z,1013.97
2017-03-28T09:42:16.950Z,1014.08
2017-03-28T09:43:18.248Z,1014.23
2017-03-28T09:44:19.506Z,1014.31
2017-03-28T09:45:20.836Z,1014.37
2017-03-28T09:46:22.244Z,1014.36
2017-03-28T09:47:23.477Z,1014.34
2017-03-28T09:48:24.767Z,1014.38
2017-03-28T09:49:26.016Z,1014.32
2017-03-28T09:50:27.295Z,1014.38
2017-03-28T09:51:28.623Z,1014.36
2017-03-28T09:52:29.902Z,1014.34
2017-03-28T09:53:31.243Z,1014.31
2017-03-28T09:54:32.527Z,1014.31
2017-03-28T09:55:33.787Z,1014.33
2017-03-28T09:56:35.035Z,1014.31
2017-03-28T09:57:36.329Z,1014.29
2017-03-28T09:58:37.616Z,1014.25
2017-03-28T09:59:38.878Z,1014.26
2017-03-28T10:00:40.159Z,1014.22
2017-03-28T10:01:41.417Z,1014.2
2017-03-28T10:02:42.976Z,1014.21
2017-03-28T10:03:44.315Z,1014.18
2017-03-28T10:04:45.570Z,1014.19
2017-03-28T10:05:46.863Z,1014.15
2017-03-28T10:06:48.123Z,1014.07
2017-03-28T10:07:49.410Z,1014.06
2017-03-28T10:08:50.714Z,1014.07
2017-03-28T10:09:52.157Z,1014.03
2017-03-28T10:10:53.413Z,1014.02
2017-03-28T10:11:54.665Z,1014.03
2017-03-28T10:12:55.941Z,1014.03
2017-03-28T10:13:57.173Z,1014
2017-03-28T10:14:58.479Z,1013.97
2017-03-28T10:15:59.820Z,1014
2017-03-28T10:17:01.079Z,1014.01
2017-03-28T10:18:02.342Z,1014.05
2017-03-28T10:19:03.615Z,1014.07
2017-03-28T10:20:04.861Z,1014.04
2017-03-28T10:21:06.119Z,1014.06
2017-03-28T10:22:07.441Z,1014.11
2017-03-28T10:23:08.723Z,1014.09
2017-03-28T10:24:09.964Z,1014.06
2017-03-28T10:25:11.253Z,1014.06
2017-03-28T10:26:12.513Z,1013.95
2017-03-28T10:27:13.993Z,1013.87
2017-03-28T10:28:15.256Z,1013.75
2017-03-28T10:29:16.530Z,1013.73
2017-03-28T10:30:17.779Z,1013.71
2017-03-28T10:31:19.046Z,1013.67
2017-03-28T10:32:20.346Z,1013.69
2017-03-28T10:33:21.729Z,1013.64
2017-03-28T10:34:22.990Z,1013.64
2017-03-28T10:35:24.253Z,1013.66
2017-03-28T10:36:25.502Z,1013.65
2017-03-28T10:37:26.938Z,1013.64
2017-03-28T10:38:28.173Z,1013.69
2017-03-28T10:39:29.449Z,1013.66
2017-03-28T10:40:30.679Z,1013.64
2017-03-28T10:41:31.933Z,1013.63
2017-03-28T10:42:33.191Z,1013.64
2017-03-28T10:43:34.554Z,1013.63
2017-03-28T10:44:35.844Z,1013.59
2017-03-28T10:45:37.114Z,1013.6
2017-03-28T10:46:38.361Z,1013.54
2017-03-28T10:47:39.622Z,1013.55
2017-03-28T10:48:40.900Z,1013.6
2017-03-28T10:49:42.240Z,1013.53
2017-03-28T10:50:43.501Z,1013.5
2017-03-28T10:51:44.760Z,1013.49
2017-03-28T10:52:46.009Z,1013.53
2017-03-28T10:53:47.290Z,1013.55
2017-03-28T10:54:48.627Z,1013.55
2017-03-28T10:55:49.888Z,1013.53
2017-03-28T10:56:51.156Z,1013.55
2017-03-28T10:57:52.370Z,1013.52
2017-03-28T10:58:53.631Z,1013.55
2017-03-28T10:59:54.900Z,1013.56
2017-03-28T11:00:56.261Z,1013.53
2017-03-28T11:01:57.653Z,1013.52
2017-03-28T11:02:58.910Z,1013.49
2017-03-28T11:04:00.177Z,1013.53
2017-03-28T11:05:01.407Z,1013.53
2017-03-28T11:06:02.775Z,1013.52
2017-03-28T11:07:04.160Z,1013.5
2017-03-28T11:08:05.537Z,1013.51
2017-03-28T11:09:06.745Z,1013.52
2017-03-28T11:10:08.007Z,1013.54
2017-03-28T11:11:09.288Z,1013.5
2017-03-28T11:12:10.631Z,1013.48
2017-03-28T11:13:11.894Z,1013.5
2017-03-28T11:14:13.186Z,1013.42
2017-03-28T11:15:14.459Z,1013.49
2017-03-28T11:16:15.731Z,1013.49
2017-03-28T11:17:16.993Z,1013.52
2017-03-28T11:18:18.280Z,1013.49
2017-03-28T11:19:19.538Z,1013.47
2017-03-28T11:20:20.803Z,1013.39
2017-03-28T11:21:22.045Z,1013.47
2017-03-28T11:22:23.287Z,1013.46
2017-03-28T11:23:24.530Z,1013.46
2017-03-28T11:24:25.807Z,1013.4
2017-03-28T11:25:27.221Z,1013.4
2017-03-28T11:26:28.473Z,1013.44
2017-03-28T11:27:29.794Z,1013.35
2017-03-28T11:28:31.057Z,1013.39
2017-03-28T11:29:32.307Z,1013.4
2017-03-28T11:30:33.546Z,1013.36
2017-03-28T11:31:34.811Z,1013.36
2017-03-28T11:32:36.243Z,1013.41
2017-03-28T11:33:37.484Z,1013.4
2017-03-28T11:34:38.729Z,1013.35
2017-03-28T11:35:39.997Z,1013.35
2017-03-28T11:36:41.232Z,1013.34
2017-03-28T11:37:42.591Z,1013.34
2017-03-28T11:38:43.855Z,1013.33
2017-03-28T11:39:45.321Z,1013.35
2017-03-28T11:40:46.675Z,1013.35
2017-03-28T11:41:47.934Z,1013.31
2017-03-28T11:42:49.203Z,1013.38
2017-03-28T11:43:50.564Z,1013.34
2017-03-28T11:44:51.812Z,1013.31
2017-03-28T11:45:53.056Z,1013.29
2017-03-28T11:46:54.323Z,1013.32
2017-03-28T11:47:55.591Z,1013.36
2017-03-28T11:48:56.831Z,1013.34
2017-03-28T11:49:58.139Z,1013.3
2017-03-28T11:50:59.390Z,1013.3
2017-03-28T11:52:00.751Z,1013.23
2017-03-28T11:53:01.998Z,1013.2
2017-03-28T11:54:03.239Z,1013.21
2017-03-28T11:55:04.601Z,1013.26
2017-03-28T11:56:05.953Z,1013.26
2017-03-28T11:57:07.196Z,1013.14
2017-03-28T11:58:08.447Z,1013.21
2017-03-28T11:59:09.722Z,1013.17
2017-03-28T12:00:10.917Z,1013.14
2017-03-28T12:01:12.283Z,1013.18
2017-03-28T12:02:13.519Z,1013.15
2017-03-28T12:03:14.774Z,1013.17
2017-03-28T12:04:16.016Z,1013.14
2017-03-28T12:05:17.266Z,1013.13
2017-03-28T12:06:18.555Z,1013.17
2017-03-28T12:07:19.907Z,1013.16
2017-03-28T12:08:21.190Z,1013.05
2017-03-28T12:09:22.409Z,1013.01
2017-03-28T12:10:23.676Z,1013.02
2017-03-28T12:11:24.911Z,1012.96
2017-03-28T12:12:26.249Z,1012.99
2017-03-28T12:13:27.489Z,1012.99
2017-03-28T12:14:28.735Z,1013.02
2017-03-28T12:15:29.980Z,1013.02
2017-03-28T12:16:31.232Z,1012.94
2017-03-28T12:17:32.523Z,1013
2017-03-28T12:18:33.794Z,1012.98
2017-03-28T12:19:35.048Z,1012.94
2017-03-28T12:20:36.313Z,1012.94
2017-03-28T12:21:37.573Z,1012.98
2017-03-28T12:22:38.877Z,1012.93
2017-03-28T12:23:40.133Z,1012.92